sensor_id;sensor_type;location;lat;lon;timestamp;pressure;altitude;pressure_sealevel;temperature;humidity
78888;BME280;68276;49.326;8.690;2024-02-26T00:01:58;98355.84;;;8.53;68.02
78888;BME280;68276;49.326;8.690;2024-02-26T00:04:23;98343.72;;;8.51;68.16
78888;BME280;68276;49.326;8.690;2024-02-26T00:06:49;98347.22;;;8.51;68.13
78888;BME280;68276;49.326;8.690;2024-02-26T00:09:16;98349.66;;;8.53;67.86
78888;BME280;68276;49.326;8.690;2024-02-26T00:11:41;98346.38;;;8.51;67.87
78888;BME280;68276;49.326;8.690;2024-02-26T00:14:07;98357.69;;;8.53;68.17
78888;BME280;68276;49.326;8.690;2024-02-26T00:16:32;98356.66;;;8.54;68.24
78888;BME280;68276;49.326;8.690;2024-02-26T00:18:58;98353.41;;;8.52;67.85
78888;BME280;68276;49.326;8.690;2024-02-26T00:21:23;98349.66;;;8.53;67.91
78888;BME280;68276;49.326;8.690;2024-02-26T00:23:49;98355.41;;;8.56;67.39
78888;BME280;68276;49.326;8.690;2024-02-26T00:26:18;98362.97;;;8.59;67.93
78888;BME280;68276;49.326;8.690;2024-02-26T00:28:43;98371.84;;;8.60;67.89
78888;BME280;68276;49.326;8.690;2024-02-26T00:31:09;98356.22;;;8.57;68.45
78888;BME280;68276;49.326;8.690;2024-02-26T00:33:34;98363.66;;;8.55;68.25
78888;BME280;68276;49.326;8.690;2024-02-26T00:35:59;98366.16;;;8.50;68.71
78888;BME280;68276;49.326;8.690;2024-02-26T00:38:25;98357.16;;;8.44;69.11
78888;BME280;68276;49.326;8.690;2024-02-26T00:40:50;98376.94;;;8.43;68.84
78888;BME280;68276;49.326;8.690;2024-02-26T00:43:16;98372.81;;;8.41;68.38
78888;BME280;68276;49.326;8.690;2024-02-26T00:45:41;98361.06;;;8.42;68.38
78888;BME280;68276;49.326;8.690;2024-02-26T00:48:07;98376.13;;;8.43;69.25
78888;BME280;68276;49.326;8.690;2024-02-26T00:50:33;98384.34;;;8.41;69.06
78888;BME280;68276;49.326;8.690;2024-02-26T00:52:59;98392.59;;;8.40;69.16
78888;BME280;68276;49.326;8.690;2024-02-26T00:55:24;98397.34;;;8.38;69.09
78888;BME280;68276;49.326;8.690;2024-02-26T00:57:50;98392.38;;;8.41;69.42
78888;BME280;68276;49.326;8.690;2024-02-26T01:00:15;98390.94;;;8.39;68.80
78888;BME280;68276;49.326;8.690;2024-02-26T01:02:41;98390.34;;;8.37;69.38
78888;BME280;68276;49.326;8.690;2024-02-26T01:05:07;98391.47;;;8.29;69.71
78888;BME280;68276;49.326;8.690;2024-02-26T01:07:34;98385.66;;;8.32;69.63
78888;BME280;68276;49.326;8.690;2024-02-26T01:10:04;98384.41;;;8.35;69.54
78888;BME280;68276;49.326;8.690;2024-02-26T01:12:31;98392.25;;;8.30;70.29
78888;BME280;68276;49.326;8.690;2024-02-26T01:14:56;98400.44;;;8.35;69.39
78888;BME280;68276;49.326;8.690;2024-02-26T01:17:21;98400.03;;;8.38;69.09
78888;BME280;68276;49.326;8.690;2024-02-26T01:19:47;98392.41;;;8.35;69.51
78888;BME280;68276;49.326;8.690;2024-02-26T01:22:12;98391.69;;;8.28;70.10
78888;BME280;68276;49.326;8.690;2024-02-26T01:24:38;98402.00;;;8.24;70.22
78888;BME280;68276;49.326;8.690;2024-02-26T01:27:03;98414.72;;;8.29;69.75
78888;BME280;68276;49.326;8.690;2024-02-26T01:29:29;98424.78;;;8.27;69.82
78888;BME280;68276;49.326;8.690;2024-02-26T01:31:54;98416.16;;;8.25;70.67
78888;BME280;68276;49.326;8.690;2024-02-26T01:34:20;98417.63;;;8.21;70.29
78888;BME280;68276;49.326;8.690;2024-02-26T01:36:45;98416.16;;;8.25;70.37
78888;BME280;68276;49.326;8.690;2024-02-26T01:39:11;98425.63;;;8.27;70.28
78888;BME280;68276;49.326;8.690;2024-02-26T01:41:38;98419.63;;;8.32;69.89
78888;BME280;68276;49.326;8.690;2024-02-26T01:44:04;98437.09;;;8.34;69.98
78888;BME280;68276;49.326;8.690;2024-02-26T01:46:30;98428.63;;;8.37;70.34
78888;BME280;68276;49.326;8.690;2024-02-26T01:48:57;98421.81;;;8.41;70.24
78888;BME280;68276;49.326;8.690;2024-02-26T01:51:23;98435.59;;;8.38;70.96
78888;BME280;68276;49.326;8.690;2024-02-26T01:53:49;98430.25;;;8.38;70.55
78888;BME280;68276;49.326;8.690;2024-02-26T01:56:15;98434.59;;;8.39;70.57
78888;BME280;68276;49.326;8.690;2024-02-26T01:58:41;98432.53;;;8.35;71.27
78888;BME280;68276;49.326;8.690;2024-02-26T02:01:07;98424.72;;;8.40;70.54
78888;BME280;68276;49.326;8.690;2024-02-26T02:03:33;98425.50;;;8.40;70.42
78888;BME280;68276;49.326;8.690;2024-02-26T02:05:59;98427.56;;;8.45;70.27
78888;BME280;68276;49.326;8.690;2024-02-26T02:08:24;98440.56;;;8.41;71.26
78888;BME280;68276;49.326;8.690;2024-02-26T02:10:50;98433.97;;;8.37;71.56
78888;BME280;68276;49.326;8.690;2024-02-26T02:13:16;98437.91;;;8.35;71.96
78888;BME280;68276;49.326;8.690;2024-02-26T02:15:41;98434.84;;;8.31;72.38
78888;BME280;68276;49.326;8.690;2024-02-26T02:18:07;98432.38;;;8.30;72.76
78888;BME280;68276;49.326;8.690;2024-02-26T02:20:33;98433.44;;;8.29;73.36
78888;BME280;68276;49.326;8.690;2024-02-26T02:22:59;98427.06;;;8.23;73.95
78888;BME280;68276;49.326;8.690;2024-02-26T02:25:24;98429.34;;;8.20;73.02
78888;BME280;68276;49.326;8.690;2024-02-26T02:27:50;98432.63;;;8.22;73.50
78888;BME280;68276;49.326;8.690;2024-02-26T02:30:17;98429.34;;;8.20;73.11
78888;BME280;68276;49.326;8.690;2024-02-26T02:32:43;98432.84;;;8.20;73.65
78888;BME280;68276;49.326;8.690;2024-02-26T02:35:09;98428.72;;;8.18;74.14
78888;BME280;68276;49.326;8.690;2024-02-26T02:37:34;98440.03;;;8.20;73.60
78888;BME280;68276;49.326;8.690;2024-02-26T02:40:00;98434.69;;;8.20;73.33
78888;BME280;68276;49.326;8.690;2024-02-26T02:42:25;98432.22;;;8.18;73.96
78888;BME280;68276;49.326;8.690;2024-02-26T02:44:51;98431.41;;;8.18;73.73
78888;BME280;68276;49.326;8.690;2024-02-26T02:47:16;98429.34;;;8.20;73.63
78888;BME280;68276;49.326;8.690;2024-02-26T02:49:42;98439.44;;;8.24;73.19
78888;BME280;68276;49.326;8.690;2024-02-26T02:52:07;98430.16;;;8.27;72.94
78888;BME280;68276;49.326;8.690;2024-02-26T02:54:32;98432.81;;;8.27;73.26
78888;BME280;68276;49.326;8.690;2024-02-26T02:56:58;98432.22;;;8.25;73.93
78888;BME280;68276;49.326;8.690;2024-02-26T02:59:23;98433.03;;;8.25;74.14
78888;BME280;68276;49.326;8.690;2024-02-26T03:01:49;98434.25;;;8.23;74.60
78888;BME280;68276;49.326;8.690;2024-02-26T03:04:14;98440.44;;;8.23;74.43
78888;BME280;68276;49.326;8.690;2024-02-26T03:06:39;98440.88;;;8.20;74.77
78888;BME280;68276;49.326;8.690;2024-02-26T03:09:05;98440.47;;;8.17;75.08
78888;BME280;68276;49.326;8.690;2024-02-26T03:11:30;98436.38;;;8.14;75.06
78888;BME280;68276;49.326;8.690;2024-02-26T03:13:56;98453.25;;;8.14;75.06
78888;BME280;68276;49.326;8.690;2024-02-26T03:16:21;98448.94;;;8.13;75.15
78888;BME280;68276;49.326;8.690;2024-02-26T03:18:47;98448.56;;;8.10;75.10
78888;BME280;68276;49.326;8.690;2024-02-26T03:21:12;98445.00;;;8.16;75.39
78888;BME280;68276;49.326;8.690;2024-02-26T03:23:38;98448.94;;;8.13;76.19
78888;BME280;68276;49.326;8.690;2024-02-26T03:26:04;98461.31;;;8.08;77.99
78888;BME280;68276;49.326;8.690;2024-02-26T03:28:29;98461.09;;;8.09;78.94
78888;BME280;68276;49.326;8.690;2024-02-26T03:30:56;98452.06;;;8.04;79.10
78888;BME280;68276;49.326;8.690;2024-02-26T03:33:21;98460.56;;;7.94;80.07
78888;BME280;68276;49.326;8.690;2024-02-26T03:35:46;98468.59;;;7.88;81.68
78888;BME280;68276;49.326;8.690;2024-02-26T03:38:13;98458.34;;;7.85;82.93
78888;BME280;68276;49.326;8.690;2024-02-26T03:40:38;98461.63;;;7.87;84.03
78888;BME280;68276;49.326;8.690;2024-02-26T03:43:04;98455.09;;;7.76;84.92
78888;BME280;68276;49.326;8.690;2024-02-26T03:45:32;98453.06;;;7.72;86.40
78888;BME280;68276;49.326;8.690;2024-02-26T03:47:57;98438.97;;;7.58;88.16
78888;BME280;68276;49.326;8.690;2024-02-26T03:50:22;98433.81;;;7.57;90.75
78888;BME280;68276;49.326;8.690;2024-02-26T03:52:48;98435.50;;;7.51;91.53
78888;BME280;68276;49.326;8.690;2024-02-26T03:55:13;98430.34;;;7.50;93.51
78888;BME280;68276;49.326;8.690;2024-02-26T03:57:39;98436.94;;;7.47;95.23
78888;BME280;68276;49.326;8.690;2024-02-26T04:00:06;98429.34;;;7.44;95.42
78888;BME280;68276;49.326;8.690;2024-02-26T04:02:31;98423.19;;;7.44;96.73
78888;BME280;68276;49.326;8.690;2024-02-26T04:04:57;98430.97;;;7.45;96.25
78888;BME280;68276;49.326;8.690;2024-02-26T04:07:22;98425.59;;;7.52;96.32
78888;BME280;68276;49.326;8.690;2024-02-26T04:09:47;98416.97;;;7.50;96.94
78888;BME280;68276;49.326;8.690;2024-02-26T04:12:13;98417.19;;;7.48;96.94
78888;BME280;68276;49.326;8.690;2024-02-26T04:14:38;98417.59;;;7.52;95.83
78888;BME280;68276;49.326;8.690;2024-02-26T04:17:04;98413.69;;;7.54;95.33
78888;BME280;68276;49.326;8.690;2024-02-26T04:19:29;98404.63;;;7.62;93.96
78888;BME280;68276;49.326;8.690;2024-02-26T04:21:55;98396.38;;;7.63;94.50
78888;BME280;68276;49.326;8.690;2024-02-26T04:24:20;98390.25;;;7.56;95.01
78888;BME280;68276;49.326;8.690;2024-02-26T04:26:45;98383.25;;;7.55;95.75
78888;BME280;68276;49.326;8.690;2024-02-26T04:29:11;98393.31;;;7.53;94.71
78888;BME280;68276;49.326;8.690;2024-02-26T04:31:37;98385.75;;;7.50;95.78
78888;BME280;68276;49.326;8.690;2024-02-26T04:34:03;98392.75;;;7.51;95.73
78888;BME280;68276;49.326;8.690;2024-02-26T04:36:28;98380.41;;;7.50;97.30
78888;BME280;68276;49.326;8.690;2024-02-26T04:38:54;98383.31;;;7.42;97.64
78888;BME280;68276;49.326;8.690;2024-02-26T04:41:22;98381.28;;;7.38;99.13
78888;BME280;68276;49.326;8.690;2024-02-26T04:43:47;98372.44;;;7.44;99.28
78888;BME280;68276;49.326;8.690;2024-02-26T04:46:13;98381.72;;;7.35;100.00
78888;BME280;68276;49.326;8.690;2024-02-26T04:48:38;98371.63;;;7.37;100.00
78888;BME280;68276;49.326;8.690;2024-02-26T04:51:04;98379.66;;;7.37;100.00
78888;BME280;68276;49.326;8.690;2024-02-26T04:53:30;98367.91;;;7.38;99.24
78888;BME280;68276;49.326;8.690;2024-02-26T04:55:55;98379.69;;;7.30;100.00
78888;BME280;68276;49.326;8.690;2024-02-26T04:58:21;98375.97;;;7.31;100.00
78888;BME280;68276;49.326;8.690;2024-02-26T05:00:46;98376.63;;;7.27;100.00
78888;BME280;68276;49.326;8.690;2024-02-26T05:03:12;98375.00;;;7.19;100.00
78888;BME280;68276;49.326;8.690;2024-02-26T05:05:39;98384.66;;;7.14;100.00
78888;BME280;68276;49.326;8.690;2024-02-26T05:08:05;98387.53;;;7.12;100.00
78888;BME280;68276;49.326;8.690;2024-02-26T05:10:32;98381.41;;;7.05;100.00
78888;BME280;68276;49.326;8.690;2024-02-26T05:12:58;98386.13;;;7.03;100.00
78888;BME280;68276;49.326;8.690;2024-02-26T05:15:23;98377.13;;;6.97;100.00
78888;BME280;68276;49.326;8.690;2024-02-26T05:17:49;98385.94;;;7.05;100.00
78888;BME280;68276;49.326;8.690;2024-02-26T05:20:14;98388.00;;;7.03;100.00
78888;BME280;68276;49.326;8.690;2024-02-26T05:22:39;98386.13;;;7.03;100.00
78888;BME280;68276;49.326;8.690;2024-02-26T05:25:05;98389.03;;;6.95;100.00
78888;BME280;68276;49.326;8.690;2024-02-26T05:27:30;98393.75;;;6.93;100.00
78888;BME280;68276;49.326;8.690;2024-02-26T05:29:56;98395.00;;;6.90;100.00
78888;BME280;68276;49.326;8.690;2024-02-26T05:32:21;98401.97;;;6.91;100.00
78888;BME280;68276;49.326;8.690;2024-02-26T05:34:47;98399.09;;;6.93;100.00
78888;BME280;68276;49.326;8.690;2024-02-26T05:37:12;98392.56;;;6.89;100.00
78888;BME280;68276;49.326;8.690;2024-02-26T05:39:38;98392.34;;;6.90;100.00
78888;BME280;68276;49.326;8.690;2024-02-26T05:42:04;98403.81;;;6.91;100.00
78888;BME280;68276;49.326;8.690;2024-02-26T05:44:30;98400.56;;;6.89;100.00
78888;BME280;68276;49.326;8.690;2024-02-26T05:46:55;98403.25;;;6.89;100.00
78888;BME280;68276;49.326;8.690;2024-02-26T05:49:22;98400.16;;;6.85;100.00
78888;BME280;68276;49.326;8.690;2024-02-26T05:51:48;98401.56;;;6.88;100.00
78888;BME280;68276;49.326;8.690;2024-02-26T05:54:13;98418.00;;;6.85;100.00
78888;BME280;68276;49.326;8.690;2024-02-26T05:56:39;98425.41;;;6.83;100.00
78888;BME280;68276;49.326;8.690;2024-02-26T05:59:04;98431.34;;;6.85;100.00
78888;BME280;68276;49.326;8.690;2024-02-26T06:01:30;98431.56;;;6.90;100.00
78888;BME280;68276;49.326;8.690;2024-02-26T06:03:56;98442.22;;;6.96;100.00
78888;BME280;68276;49.326;8.690;2024-02-26T06:06:22;98444.69;;;7.05;100.00
78888;BME280;68276;49.326;8.690;2024-02-26T06:08:48;98453.91;;;7.09;100.00
78888;BME280;68276;49.326;8.690;2024-02-26T06:11:14;98453.28;;;7.00;100.00
78888;BME280;68276;49.326;8.690;2024-02-26T06:13:39;98455.34;;;7.05;100.00
78888;BME280;68276;49.326;8.690;2024-02-26T06:16:05;98463.53;;;7.16;100.00
78888;BME280;68276;49.326;8.690;2024-02-26T06:18:31;98464.97;;;7.12;100.00
78888;BME280;68276;49.326;8.690;2024-02-26T06:20:56;98478.97;;;7.08;100.00
78888;BME280;68276;49.326;8.690;2024-02-26T06:23:22;98480.81;;;7.07;100.00
78888;BME280;68276;49.326;8.690;2024-02-26T06:25:48;98481.00;;;7.06;100.00
78888;BME280;68276;49.326;8.690;2024-02-26T06:28:13;98492.31;;;7.08;100.00
78888;BME280;68276;49.326;8.690;2024-02-26T06:30:39;98502.19;;;7.01;100.00
78888;BME280;68276;49.326;8.690;2024-02-26T06:33:04;98492.34;;;7.01;100.00
78888;BME280;68276;49.326;8.690;2024-02-26T06:35:30;98500.94;;;7.03;100.00
78888;BME280;68276;49.326;8.690;2024-02-26T06:37:55;98499.31;;;6.95;100.00
78888;BME280;68276;49.326;8.690;2024-02-26T06:40:21;98508.94;;;7.03;100.00
78888;BME280;68276;49.326;8.690;2024-02-26T06:42:47;98507.50;;;7.07;100.00
78888;BME280;68276;49.326;8.690;2024-02-26T06:45:12;98499.28;;;7.02;100.00
78888;BME280;68276;49.326;8.690;2024-02-26T06:47:38;98499.69;;;7.12;100.00
78888;BME280;68276;49.326;8.690;2024-02-26T06:50:03;98498.63;;;7.33;100.00
78888;BME280;68276;49.326;8.690;2024-02-26T06:52:29;98516.03;;;7.48;100.00
78888;BME280;68276;49.326;8.690;2024-02-26T06:54:54;98514.03;;;7.37;100.00
78888;BME280;68276;49.326;8.690;2024-02-26T06:57:20;98513.84;;;7.32;100.00
78888;BME280;68276;49.326;8.690;2024-02-26T06:59:46;98508.28;;;7.40;100.00
78888;BME280;68276;49.326;8.690;2024-02-26T07:02:13;98514.66;;;7.39;100.00
78888;BME280;68276;49.326;8.690;2024-02-26T07:04:38;98514.03;;;7.31;100.00
78888;BME280;68276;49.326;8.690;2024-02-26T07:07:04;98520.38;;;7.36;100.00
78888;BME280;68276;49.326;8.690;2024-02-26T07:09:29;98519.38;;;7.31;100.00
78888;BME280;68276;49.326;8.690;2024-02-26T07:11:55;98532.13;;;7.22;100.00
78888;BME280;68276;49.326;8.690;2024-02-26T07:14:20;98535.22;;;7.13;100.00
78888;BME280;68276;49.326;8.690;2024-02-26T07:16:46;98531.75;;;7.06;100.00
78888;BME280;68276;49.326;8.690;2024-02-26T07:19:11;98534.22;;;6.94;100.00
78888;BME280;68276;49.326;8.690;2024-02-26T07:21:36;98527.44;;;6.91;100.00
78888;BME280;68276;49.326;8.690;2024-02-26T07:24:02;98527.66;;;6.83;100.00
78888;BME280;68276;49.326;8.690;2024-02-26T07:26:27;98524.56;;;6.80;100.00
78888;BME280;68276;49.326;8.690;2024-02-26T07:28:55;98533.78;;;6.71;100.00
78888;BME280;68276;49.326;8.690;2024-02-26T07:31:20;98531.34;;;6.69;100.00
78888;BME280;68276;49.326;8.690;2024-02-26T07:33:46;98537.28;;;6.71;100.00
78888;BME280;68276;49.326;8.690;2024-02-26T07:36:11;98541.00;;;6.77;100.00
78888;BME280;68276;49.326;8.690;2024-02-26T07:38:37;98538.91;;;6.79;100.00
78888;BME280;68276;49.326;8.690;2024-02-26T07:41:02;98544.88;;;6.81;100.00
78888;BME280;68276;49.326;8.690;2024-02-26T07:43:28;98539.13;;;6.84;100.00
78888;BME280;68276;49.326;8.690;2024-02-26T07:45:54;98533.00;;;6.83;100.00
78888;BME280;68276;49.326;8.690;2024-02-26T07:48:19;98546.72;;;7.07;100.00
78888;BME280;68276;49.326;8.690;2024-02-26T07:50:45;98539.97;;;6.97;100.00
78888;BME280;68276;49.326;8.690;2024-02-26T07:53:10;98536.25;;;6.98;100.00
78888;BME280;68276;49.326;8.690;2024-02-26T07:55:36;98536.88;;;6.94;100.00
78888;BME280;68276;49.326;8.690;2024-02-26T07:58:01;98546.09;;;6.98;100.00
78888;BME280;68276;49.326;8.690;2024-02-26T08:00:27;98546.94;;;7.05;100.00
78888;BME280;68276;49.326;8.690;2024-02-26T08:02:52;98546.53;;;7.15;100.00
78888;BME280;68276;49.326;8.690;2024-02-26T08:05:18;98554.31;;;7.36;100.00
78888;BME280;68276;49.326;8.690;2024-02-26T08:07:43;98548.75;;;7.37;100.00
78888;BME280;68276;49.326;8.690;2024-02-26T08:10:09;98543.22;;;7.39;100.00
78888;BME280;68276;49.326;8.690;2024-02-26T08:12:36;98546.50;;;7.41;100.00
78888;BME280;68276;49.326;8.690;2024-02-26T08:15:01;98552.22;;;7.38;100.00
78888;BME280;68276;49.326;8.690;2024-02-26T08:17:27;98549.16;;;7.41;100.00
78888;BME280;68276;49.326;8.690;2024-02-26T08:19:53;98553.44;;;7.48;100.00
78888;BME280;68276;49.326;8.690;2024-02-26T08:22:18;98559.38;;;7.57;100.00
78888;BME280;68276;49.326;8.690;2024-02-26T08:24:43;98569.00;;;7.71;100.00
78888;BME280;68276;49.326;8.690;2024-02-26T08:27:09;98572.50;;;7.78;100.00
78888;BME280;68276;49.326;8.690;2024-02-26T08:29:34;98569.41;;;7.87;100.00
78888;BME280;68276;49.326;8.690;2024-02-26T08:32:00;98569.34;;;8.00;100.00
78888;BME280;68276;49.326;8.690;2024-02-26T08:34:26;98560.28;;;7.95;100.00
78888;BME280;68276;49.326;8.690;2024-02-26T08:36:51;98557.03;;;7.93;100.00
78888;BME280;68276;49.326;8.690;2024-02-26T08:39:17;98566.22;;;8.03;100.00
78888;BME280;68276;49.326;8.690;2024-02-26T08:41:43;98563.63;;;7.90;100.00
78888;BME280;68276;49.326;8.690;2024-02-26T08:44:09;98552.56;;;7.80;100.00
78888;BME280;68276;49.326;8.690;2024-02-26T08:46:35;98553.16;;;7.82;100.00
78888;BME280;68276;49.326;8.690;2024-02-26T08:49:00;98557.47;;;7.83;100.00
78888;BME280;68276;49.326;8.690;2024-02-26T08:51:26;98557.47;;;7.83;100.00
78888;BME280;68276;49.326;8.690;2024-02-26T08:53:51;98567.34;;;7.83;100.00
78888;BME280;68276;49.326;8.690;2024-02-26T08:56:17;98565.66;;;7.88;100.00
78888;BME280;68276;49.326;8.690;2024-02-26T08:58:47;98564.66;;;7.89;100.00
78888;BME280;68276;49.326;8.690;2024-02-26T09:01:17;98574.13;;;7.85;100.00
78888;BME280;68276;49.326;8.690;2024-02-26T09:03:42;98580.09;;;7.87;100.00
78888;BME280;68276;49.326;8.690;2024-02-26T09:06:08;98584.19;;;7.90;100.00
78888;BME280;68276;49.326;8.690;2024-02-26T09:08:33;98583.59;;;7.81;100.00
78888;BME280;68276;49.326;8.690;2024-02-26T09:11:01;98582.34;;;7.84;100.00
78888;BME280;68276;49.326;8.690;2024-02-26T09:13:26;98583.81;;;7.80;100.00
78888;BME280;68276;49.326;8.690;2024-02-26T09:15:52;98589.34;;;7.78;100.00
78888;BME280;68276;49.326;8.690;2024-02-26T09:18:17;98583.59;;;7.81;100.00
78888;BME280;68276;49.326;8.690;2024-02-26T09:20:42;98576.59;;;7.87;100.00
78888;BME280;68276;49.326;8.690;2024-02-26T09:23:08;98572.88;;;7.88;100.00
78888;BME280;68276;49.326;8.690;2024-02-26T09:25:34;98581.50;;;7.90;100.00
78888;BME280;68276;49.326;8.690;2024-02-26T09:28:00;98585.84;;;7.84;100.00
78888;BME280;68276;49.326;8.690;2024-02-26T09:30:26;98592.22;;;7.83;100.00
78888;BME280;68276;49.326;8.690;2024-02-26T09:32:51;98593.66;;;7.86;100.00
78888;BME280;68276;49.326;8.690;2024-02-26T09:35:16;98594.91;;;7.83;100.00
78888;BME280;68276;49.326;8.690;2024-02-26T09:37:42;98593.88;;;7.78;100.00
78888;BME280;68276;49.326;8.690;2024-02-26T09:40:10;98601.91;;;7.78;100.00
78888;BME280;68276;49.326;8.690;2024-02-26T09:42:37;98593.06;;;7.77;100.00
78888;BME280;68276;49.326;8.690;2024-02-26T09:45:11;98603.16;;;7.75;100.00
78888;BME280;68276;49.326;8.690;2024-02-26T09:47:38;98601.09;;;7.71;100.00
78888;BME280;68276;49.326;8.690;2024-02-26T09:50:05;98603.53;;;7.72;100.00
78888;BME280;68276;49.326;8.690;2024-02-26T09:52:34;98612.19;;;7.74;100.00
78888;BME280;68276;49.326;8.690;2024-02-26T09:55:04;98608.47;;;7.82;100.00
78888;BME280;68276;49.326;8.690;2024-02-26T09:57:29;98600.44;;;7.88;100.00
78888;BME280;68276;49.326;8.690;2024-02-26T09:59:59;98604.91;;;8.01;100.00
78888;BME280;68276;49.326;8.690;2024-02-26T10:02:28;98598.09;;;8.11;100.00
78888;BME280;68276;49.326;8.690;2024-02-26T10:04:54;98600.53;;;8.20;100.00
78888;BME280;68276;49.326;8.690;2024-02-26T10:07:22;98596.56;;;8.35;100.00
78888;BME280;68276;49.326;8.690;2024-02-26T10:09:48;98598.72;;;8.58;100.00
78888;BME280;68276;49.326;8.690;2024-02-26T10:12:15;98597.78;;;8.77;100.00
78888;BME280;68276;49.326;8.690;2024-02-26T10:14:42;98595.66;;;8.85;97.94
78888;BME280;68276;49.326;8.690;2024-02-26T10:17:08;98602.56;;;8.99;97.71
78888;BME280;68276;49.326;8.690;2024-02-26T10:19:34;98597.22;;;8.99;96.89
78888;BME280;68276;49.326;8.690;2024-02-26T10:22:00;98604.56;;;9.10;96.31
78888;BME280;68276;49.326;8.690;2024-02-26T10:24:28;98597.69;;;9.21;95.08
78888;BME280;68276;49.326;8.690;2024-02-26T10:26:55;98605.81;;;9.33;95.08
78888;BME280;68276;49.326;8.690;2024-02-26T10:29:21;98611.09;;;9.39;93.77
78888;BME280;68276;49.326;8.690;2024-02-26T10:31:47;98604.50;;;9.42;92.50
78888;BME280;68276;49.326;8.690;2024-02-26T10:34:14;98618.59;;;9.55;92.73
78888;BME280;68276;49.326;8.690;2024-02-26T10:36:40;98613.09;;;9.50;91.33
78888;BME280;68276;49.326;8.690;2024-02-26T10:39:06;98626.03;;;9.53;92.12
78888;BME280;68276;49.326;8.690;2024-02-26T10:41:35;98619.91;;;9.46;91.71
78888;BME280;68276;49.326;8.690;2024-02-26T10:44:01;98623.50;;;9.58;91.34
78888;BME280;68276;49.326;8.690;2024-02-26T10:46:27;98618.75;;;9.60;90.21
78888;BME280;68276;49.326;8.690;2024-02-26T10:48:53;98614.38;;;9.66;90.04
78888;BME280;68276;49.326;8.690;2024-02-26T10:51:29;98619.22;;;9.75;89.38
78888;BME280;68276;49.326;8.690;2024-02-26T10:53:56;98617.16;;;9.77;91.03
78888;BME280;68276;49.326;8.690;2024-02-26T10:56:30;98616.69;;;9.80;89.72
78888;BME280;68276;49.326;8.690;2024-02-26T10:58:58;98627.91;;;9.95;89.33
78888;BME280;68276;49.326;8.690;2024-02-26T11:01:25;98637.81;;;9.95;88.51
78888;BME280;68276;49.326;8.690;2024-02-26T11:03:52;98635.69;;;10.21;88.27
78888;BME280;68276;49.326;8.690;2024-02-26T11:06:22;98635.66;;;10.39;85.54
78888;BME280;68276;49.326;8.690;2024-02-26T11:08:49;98649.09;;;10.39;85.66
78888;BME280;68276;49.326;8.690;2024-02-26T11:11:16;98640.88;;;10.53;85.44
78888;BME280;68276;49.326;8.690;2024-02-26T11:13:46;98648.19;;;10.46;86.28
78888;BME280;68276;49.326;8.690;2024-02-26T11:16:16;98658.19;;;10.38;87.54
78888;BME280;68276;49.326;8.690;2024-02-26T11:18:42;98652.97;;;10.44;88.11
78888;BME280;68276;49.326;8.690;2024-02-26T11:21:13;98657.28;;;10.63;88.34
78888;BME280;68276;49.326;8.690;2024-02-26T11:23:40;98655.06;;;10.60;87.08
78888;BME280;68276;49.326;8.690;2024-02-26T11:26:06;98652.94;;;10.62;87.84
78888;BME280;68276;49.326;8.690;2024-02-26T11:28:33;98645.38;;;10.70;87.58
78888;BME280;68276;49.326;8.690;2024-02-26T11:31:00;98646.53;;;10.92;86.54
78888;BME280;68276;49.326;8.690;2024-02-26T11:33:27;98644.94;;;11.03;85.78
78888;BME280;68276;49.326;8.690;2024-02-26T11:35:53;98647.59;;;11.44;83.40
78888;BME280;68276;49.326;8.690;2024-02-26T11:38:20;98651.25;;;11.49;82.14
78888;BME280;68276;49.326;8.690;2024-02-26T11:40:47;98649.81;;;11.58;81.82
78888;BME280;68276;49.326;8.690;2024-02-26T11:43:13;98635.31;;;11.36;81.77
78888;BME280;68276;49.326;8.690;2024-02-26T11:48:25;98645.75;;;11.03;83.14
78888;BME280;68276;49.326;8.690;2024-02-26T11:50:52;98647.38;;;11.34;82.16
78888;BME280;68276;49.326;8.690;2024-02-26T11:53:28;98644.88;;;11.32;78.45
78888;BME280;68276;49.326;8.690;2024-02-26T11:58:45;98634.78;;;11.92;75.71
78888;BME280;68276;49.326;8.690;2024-02-26T12:04:03;98647.38;;;12.26;72.13
78888;BME280;68276;49.326;8.690;2024-02-26T12:06:29;98642.47;;;12.23;73.38
78888;BME280;68276;49.326;8.690;2024-02-26T12:08:56;98652.31;;;12.18;73.18
78888;BME280;68276;49.326;8.690;2024-02-26T12:11:21;98648.72;;;11.89;73.74
78888;BME280;68276;49.326;8.690;2024-02-26T12:13:47;98648.97;;;11.88;73.81
78888;BME280;68276;49.326;8.690;2024-02-26T12:16:35;98659.94;;;11.98;74.73
78888;BME280;68276;49.326;8.690;2024-02-26T12:19:04;98658.66;;;12.00;74.28
78888;BME280;68276;49.326;8.690;2024-02-26T12:21:33;98662.63;;;11.86;72.63
78888;BME280;68276;49.326;8.690;2024-02-26T12:24:15;98661.69;;;12.04;73.34
78888;BME280;68276;49.326;8.690;2024-02-26T12:26:41;98662.03;;;12.30;72.35
78888;BME280;68276;49.326;8.690;2024-02-26T12:29:07;98658.50;;;12.41;71.33
78888;BME280;68276;49.326;8.690;2024-02-26T12:31:33;98666.53;;;12.53;71.32
78888;BME280;68276;49.326;8.690;2024-02-26T12:34:02;98675.44;;;12.42;70.94
78888;BME280;68276;49.326;8.690;2024-02-26T12:36:28;98676.28;;;12.42;70.16
78888;BME280;68276;49.326;8.690;2024-02-26T12:38:54;98673.66;;;12.59;70.01
78888;BME280;68276;49.326;8.690;2024-02-26T12:41:20;98673.31;;;12.55;70.15
78888;BME280;68276;49.326;8.690;2024-02-26T12:43:46;98672.84;;;12.58;70.05
78888;BME280;68276;49.326;8.690;2024-02-26T12:46:12;98673.34;;;12.84;69.04
78888;BME280;68276;49.326;8.690;2024-02-26T12:48:38;98671.81;;;12.88;69.36
78888;BME280;68276;49.326;8.690;2024-02-26T12:51:05;98675.91;;;12.90;69.51
78888;BME280;68276;49.326;8.690;2024-02-26T12:53:31;98681.13;;;12.68;69.01
78888;BME280;68276;49.326;8.690;2024-02-26T12:55:57;98677.28;;;12.64;69.99
78888;BME280;68276;49.326;8.690;2024-02-26T12:58:23;98687.13;;;12.71;69.37
78888;BME280;68276;49.326;8.690;2024-02-26T13:00:54;98678.84;;;12.89;68.71
78888;BME280;68276;49.326;8.690;2024-02-26T13:03:21;98682.91;;;13.03;68.33
78888;BME280;68276;49.326;8.690;2024-02-26T13:05:48;98682.97;;;13.19;68.13
78888;BME280;68276;49.326;8.690;2024-02-26T13:08:20;98688.22;;;13.26;67.66